UKV142 EGPD-EGLL
Flight info
| Callsign | UKV142 |
|---|---|
| Flight time | 1h 8m |
| Altitude | 37000 |
| Route | GLESK DCT EDN DCT RIBEL/N0450F360 DCT NUGRA |
| Aircraft | A320/M-SDE3FGHIRWY/LB1 |
Departure
| Time | 2026-05-07 16:39 |
|---|---|
| Airport | Aberdeen International Airport (EGPD) |
Arrival
| Time | 2026-05-07 17:47 |
|---|---|
| Airport | London Heathrow Airport (EGLL) |
| Time | Latitude | Longitude | Altitude | Speed | Heading |
|---|---|---|---|---|---|
| 2026-05-07 16:28 | 57.19989 | -2.20200 | 221 ft | 0 kts | 249° |
| 2026-05-07 16:32 | 57.19990 | -2.20195 | 221 ft | 3 kts | 249° |
| 2026-05-07 16:32 | 57.20000 | -2.20150 | 224 ft | 4 kts | 248° |
| 2026-05-07 16:33 | 57.20008 | -2.20113 | 222 ft | 4 kts | 260° |
| 2026-05-07 16:33 | 57.20004 | -2.20079 | 222 ft | 4 kts | 333° |
| 2026-05-07 16:33 | 57.19992 | -2.20069 | 225 ft | 0 kts | 338° |
| 2026-05-07 16:35 | 57.19993 | -2.20069 | 225 ft | 0 kts | 338° |
| 2026-05-07 16:35 | 57.20001 | -2.20075 | 222 ft | 2 kts | 339° |
| 2026-05-07 16:35 | 57.20030 | -2.20095 | 221 ft | 7 kts | 338° |
| 2026-05-07 16:36 | 57.20087 | -2.20139 | 221 ft | 12 kts | 338° |
| 2026-05-07 16:36 | 57.20189 | -2.20212 | 221 ft | 19 kts | 339° |
| 2026-05-07 16:36 | 57.20294 | -2.20286 | 221 ft | 16 kts | 338° |
| 2026-05-07 16:36 | 57.20438 | -2.20391 | 217 ft | 22 kts | 339° |
| 2026-05-07 16:37 | 57.20541 | -2.20362 | 214 ft | 20 kts | 339° |
| 2026-05-07 16:37 | 57.20701 | -2.20480 | 215 ft | 29 kts | 338° |
| 2026-05-07 16:37 | 57.20834 | -2.20577 | 215 ft | 19 kts | 339° |
| 2026-05-07 16:37 | 57.20922 | -2.20642 | 221 ft | 10 kts | 334° |
| 2026-05-07 16:38 | 57.20988 | -2.20653 | 215 ft | 10 kts | 28° |
| 2026-05-07 16:38 | 57.21020 | -2.20535 | 218 ft | 10 kts | 70° |
| 2026-05-07 16:38 | 57.21040 | -2.20434 | 215 ft | 7 kts | 86° |
| 2026-05-07 16:38 | 57.21006 | -2.20377 | 215 ft | 8 kts | 155° |
| 2026-05-07 16:39 | 57.20928 | -2.20318 | 209 ft | 20 kts | 158° |
| 2026-05-07 16:39 | 57.20552 | -2.20040 | 214 ft | 96 kts | 158° |
| 2026-05-07 16:39 | 57.19746 | -2.19451 | 391 ft | 138 kts | 159° |
| 2026-05-07 16:39 | 57.18850 | -2.18769 | 1199 ft | 141 kts | 159° |
| 2026-05-07 16:40 | 57.17906 | -2.18004 | 1784 ft | 155 kts | 161° |
| 2026-05-07 16:40 | 57.16816 | -2.17548 | 2055 ft | 171 kts | 193° |
| 2026-05-07 16:40 | 57.15815 | -2.18885 | 2353 ft | 199 kts | 238° |
| 2026-05-07 16:40 | 57.15395 | -2.21510 | 2779 ft | 228 kts | 254° |
| 2026-05-07 16:41 | 57.15123 | -2.24510 | 3449 ft | 243 kts | 257° |
| 2026-05-07 16:41 | 57.14881 | -2.27621 | 4377 ft | 247 kts | 257° |
| 2026-05-07 16:41 | 57.14639 | -2.30762 | 5351 ft | 249 kts | 257° |
| 2026-05-07 16:41 | 57.14383 | -2.33926 | 6308 ft | 251 kts | 257° |
| 2026-05-07 16:42 | 57.14104 | -2.37114 | 7203 ft | 253 kts | 254° |
| 2026-05-07 16:42 | 57.13510 | -2.40151 | 8061 ft | 253 kts | 239° |
| 2026-05-07 16:42 | 57.12481 | -2.42726 | 8911 ft | 255 kts | 224° |
| 2026-05-07 16:42 | 57.11158 | -2.44921 | 9775 ft | 258 kts | 221° |
| 2026-05-07 16:43 | 57.09792 | -2.47151 | 10365 ft | 272 kts | 221° |
| 2026-05-07 16:43 | 57.08323 | -2.49564 | 10616 ft | 295 kts | 221° |
| 2026-05-07 16:43 | 57.06733 | -2.52178 | 10880 ft | 316 kts | 221° |
| 2026-05-07 16:43 | 57.05068 | -2.54913 | 11463 ft | 325 kts | 221° |
| 2026-05-07 16:44 | 57.03377 | -2.57698 | 12161 ft | 329 kts | 222° |
| 2026-05-07 16:44 | 57.01665 | -2.60515 | 12892 ft | 332 kts | 222° |
| 2026-05-07 16:44 | 56.99930 | -2.63363 | 13635 ft | 336 kts | 222° |
| 2026-05-07 16:44 | 56.98179 | -2.66233 | 14283 ft | 340 kts | 222° |
| 2026-05-07 16:45 | 56.96409 | -2.69130 | 14903 ft | 343 kts | 221° |
| 2026-05-07 16:45 | 56.94620 | -2.72052 | 15534 ft | 346 kts | 221° |
| 2026-05-07 16:45 | 56.92809 | -2.75002 | 16176 ft | 350 kts | 221° |
| 2026-05-07 16:45 | 56.90930 | -2.77854 | 16801 ft | 353 kts | 214° |
| 2026-05-07 16:46 | 56.88785 | -2.80076 | 17415 ft | 357 kts | 204° |
| 2026-05-07 16:46 | 56.86429 | -2.81555 | 17996 ft | 360 kts | 197° |
| 2026-05-07 16:46 | 56.84048 | -2.82837 | 18530 ft | 363 kts | 197° |
| 2026-05-07 16:46 | 56.81617 | -2.84147 | 19044 ft | 366 kts | 197° |
| 2026-05-07 16:47 | 56.79171 | -2.85469 | 19551 ft | 368 kts | 197° |
| 2026-05-07 16:47 | 56.76675 | -2.86819 | 20092 ft | 371 kts | 197° |
| 2026-05-07 16:47 | 56.74191 | -2.88163 | 20597 ft | 373 kts | 197° |
| 2026-05-07 16:47 | 56.71727 | -2.89492 | 21106 ft | 376 kts | 197° |
| 2026-05-07 16:48 | 56.69213 | -2.90845 | 21616 ft | 378 kts | 198° |
| 2026-05-07 16:48 | 56.66685 | -2.92208 | 22158 ft | 379 kts | 198° |
| 2026-05-07 16:48 | 56.64152 | -2.93573 | 22677 ft | 381 kts | 198° |
| 2026-05-07 16:48 | 56.61605 | -2.94945 | 23162 ft | 383 kts | 198° |
| 2026-05-07 16:49 | 56.59036 | -2.96323 | 23601 ft | 386 kts | 198° |
| 2026-05-07 16:49 | 56.56456 | -2.97701 | 23989 ft | 388 kts | 198° |
| 2026-05-07 16:49 | 56.53841 | -2.98961 | 24357 ft | 391 kts | 191° |
| 2026-05-07 16:49 | 56.51107 | -2.99052 | 24700 ft | 399 kts | 175° |
| 2026-05-07 16:50 | 56.48330 | -2.98312 | 24831 ft | 408 kts | 174° |
| 2026-05-07 16:50 | 56.45503 | -2.97485 | 24953 ft | 416 kts | 173° |
| 2026-05-07 16:50 | 56.42625 | -2.96605 | 25080 ft | 423 kts | 173° |
| 2026-05-07 16:50 | 56.39697 | -2.95698 | 25204 ft | 430 kts | 173° |
| 2026-05-07 16:51 | 56.36732 | -2.94785 | 25331 ft | 435 kts | 173° |
| 2026-05-07 16:51 | 56.33729 | -2.93874 | 25456 ft | 441 kts | 173° |
| 2026-05-07 16:51 | 56.30682 | -2.92966 | 25581 ft | 446 kts | 173° |
| 2026-05-07 16:51 | 56.27607 | -2.92060 | 25706 ft | 450 kts | 173° |
| 2026-05-07 16:52 | 56.24501 | -2.91149 | 25805 ft | 454 kts | 173° |
| 2026-05-07 16:52 | 56.21371 | -2.90229 | 25986 ft | 457 kts | 173° |
| 2026-05-07 16:52 | 56.18232 | -2.89305 | 26282 ft | 457 kts | 173° |
| 2026-05-07 16:52 | 56.15095 | -2.88383 | 26620 ft | 456 kts | 173° |
| 2026-05-07 16:53 | 56.11961 | -2.87464 | 26971 ft | 455 kts | 173° |
| 2026-05-07 16:53 | 56.09850 | -2.86845 | 27211 ft | 455 kts | 173° |
| 2026-05-07 16:53 | 56.06733 | -2.85929 | 27573 ft | 454 kts | 173° |
| 2026-05-07 16:53 | 56.03664 | -2.85028 | 27934 ft | 453 kts | 173° |
| 2026-05-07 16:54 | 56.00561 | -2.84119 | 28306 ft | 452 kts | 173° |
| 2026-05-07 16:54 | 55.97459 | -2.83213 | 28684 ft | 451 kts | 173° |
| 2026-05-07 16:54 | 55.94369 | -2.82311 | 29020 ft | 450 kts | 173° |
| 2026-05-07 16:54 | 55.91274 | -2.81410 | 29295 ft | 451 kts | 173° |
| 2026-05-07 16:55 | 55.88171 | -2.80514 | 29616 ft | 451 kts | 173° |
| 2026-05-07 16:55 | 55.85074 | -2.79624 | 29978 ft | 451 kts | 173° |
| 2026-05-07 16:55 | 55.81982 | -2.78734 | 30303 ft | 450 kts | 173° |
| 2026-05-07 16:55 | 55.78899 | -2.77841 | 30633 ft | 448 kts | 172° |
| 2026-05-07 16:56 | 55.75826 | -2.76952 | 31066 ft | 444 kts | 173° |
| 2026-05-07 16:56 | 55.72801 | -2.76081 | 31647 ft | 437 kts | 172° |
| 2026-05-07 16:56 | 55.66838 | -2.74376 | 32493 ft | 431 kts | 172° |
| 2026-05-07 16:57 | 55.63884 | -2.73534 | 32860 ft | 429 kts | 172° |
| 2026-05-07 16:57 | 55.60941 | -2.72692 | 33224 ft | 428 kts | 172° |
| 2026-05-07 16:57 | 55.58010 | -2.71856 | 33584 ft | 426 kts | 172° |
| 2026-05-07 16:57 | 55.55086 | -2.71028 | 33941 ft | 424 kts | 172° |
| 2026-05-07 16:58 | 55.52176 | -2.70202 | 34229 ft | 423 kts | 172° |
| 2026-05-07 16:58 | 55.49268 | -2.69371 | 34455 ft | 424 kts | 172° |
| 2026-05-07 16:58 | 55.46356 | -2.68537 | 34668 ft | 425 kts | 171° |
| 2026-05-07 16:58 | 55.43433 | -2.67702 | 34886 ft | 426 kts | 172° |
| 2026-05-07 16:59 | 55.40508 | -2.66874 | 35094 ft | 426 kts | 172° |
| 2026-05-07 16:59 | 55.37576 | -2.66048 | 35305 ft | 427 kts | 172° |
| 2026-05-07 16:59 | 55.34640 | -2.65223 | 35506 ft | 428 kts | 172° |
| 2026-05-07 16:59 | 55.31693 | -2.64395 | 35702 ft | 429 kts | 172° |
| 2026-05-07 17:00 | 55.28746 | -2.63568 | 35891 ft | 430 kts | 172° |
| 2026-05-07 17:00 | 55.25792 | -2.62740 | 35969 ft | 430 kts | 172° |
| 2026-05-07 17:00 | 55.19877 | -2.61077 | 35976 ft | 431 kts | 172° |
| 2026-05-07 17:01 | 55.13995 | -2.59436 | 35975 ft | 431 kts | 172° |
| 2026-05-07 17:01 | 55.08037 | -2.57785 | 35975 ft | 431 kts | 172° |
| 2026-05-07 17:02 | 55.02154 | -2.56152 | 35975 ft | 431 kts | 172° |
| 2026-05-07 17:02 | 54.96238 | -2.54511 | 35966 ft | 431 kts | 171° |
| 2026-05-07 17:03 | 54.90314 | -2.52879 | 35972 ft | 431 kts | 171° |
| 2026-05-07 17:03 | 54.84388 | -2.51249 | 35980 ft | 431 kts | 171° |
| 2026-05-07 17:04 | 54.78457 | -2.49613 | 35994 ft | 431 kts | 171° |
| 2026-05-07 17:04 | 54.72529 | -2.47988 | 35990 ft | 431 kts | 171° |
| 2026-05-07 17:05 | 54.66596 | -2.46377 | 35991 ft | 432 kts | 171° |
| 2026-05-07 17:05 | 54.60661 | -2.44771 | 35995 ft | 432 kts | 171° |
| 2026-05-07 17:06 | 54.54732 | -2.43157 | 35994 ft | 431 kts | 171° |
| 2026-05-07 17:06 | 54.48798 | -2.41554 | 35996 ft | 431 kts | 171° |
| 2026-05-07 17:07 | 54.42866 | -2.39959 | 35992 ft | 432 kts | 171° |
| 2026-05-07 17:07 | 54.36931 | -2.38366 | 35992 ft | 432 kts | 171° |
| 2026-05-07 17:08 | 54.30992 | -2.36768 | 35993 ft | 432 kts | 171° |
| 2026-05-07 17:08 | 54.25042 | -2.35188 | 35995 ft | 432 kts | 171° |
| 2026-05-07 17:09 | 54.19133 | -2.33607 | 35993 ft | 433 kts | 171° |
| 2026-05-07 17:09 | 54.13183 | -2.32017 | 35998 ft | 433 kts | 171° |
| 2026-05-07 17:10 | 54.07220 | -2.30438 | 35999 ft | 434 kts | 171° |
| 2026-05-07 17:10 | 54.01238 | -2.29014 | 36002 ft | 434 kts | 177° |
| 2026-05-07 17:11 | 53.95193 | -2.29064 | 36002 ft | 435 kts | 180° |
| 2026-05-07 17:11 | 53.89144 | -2.29152 | 36001 ft | 435 kts | 180° |
| 2026-05-07 17:12 | 53.83082 | -2.29232 | 36002 ft | 436 kts | 180° |
| 2026-05-07 17:12 | 53.77021 | -2.29333 | 36003 ft | 436 kts | 180° |
| 2026-05-07 17:13 | 53.70962 | -2.29423 | 35998 ft | 431 kts | 180° |
| 2026-05-07 17:13 | 53.68019 | -2.29465 | 36011 ft | 417 kts | 180° |
| 2026-05-07 17:13 | 53.65135 | -2.29502 | 36007 ft | 412 kts | 180° |
| 2026-05-07 17:14 | 53.59426 | -2.29576 | 36009 ft | 409 kts | 180° |
| 2026-05-07 17:14 | 53.53735 | -2.29650 | 36015 ft | 409 kts | 180° |
| 2026-05-07 17:15 | 53.48045 | -2.29736 | 36011 ft | 409 kts | 181° |
| 2026-05-07 17:15 | 53.42349 | -2.29824 | 36028 ft | 409 kts | 180° |
| 2026-05-07 17:16 | 53.36659 | -2.29893 | 36027 ft | 409 kts | 180° |
| 2026-05-07 17:16 | 53.30967 | -2.29972 | 36025 ft | 409 kts | 181° |
| 2026-05-07 17:17 | 53.25285 | -2.30059 | 36023 ft | 408 kts | 181° |
| 2026-05-07 17:17 | 53.19642 | -2.30153 | 36014 ft | 409 kts | 181° |
| 2026-05-07 17:18 | 53.13945 | -2.30225 | 35941 ft | 411 kts | 181° |
| 2026-05-07 17:18 | 53.11089 | -2.30258 | 35687 ft | 411 kts | 181° |
| 2026-05-07 17:18 | 53.08230 | -2.30292 | 35437 ft | 410 kts | 180° |
| 2026-05-07 17:19 | 53.05390 | -2.29987 | 35190 ft | 409 kts | 172° |
| 2026-05-07 17:19 | 53.02626 | -2.28937 | 34945 ft | 407 kts | 162° |
| 2026-05-07 17:19 | 53.00007 | -2.27157 | 34706 ft | 406 kts | 154° |
| 2026-05-07 17:19 | 52.97586 | -2.24759 | 34461 ft | 406 kts | 149° |
| 2026-05-07 17:20 | 52.95207 | -2.22238 | 34221 ft | 406 kts | 149° |
| 2026-05-07 17:20 | 52.92827 | -2.19730 | 33984 ft | 405 kts | 149° |
| 2026-05-07 17:20 | 52.90450 | -2.17239 | 33695 ft | 403 kts | 149° |
| 2026-05-07 17:20 | 52.88086 | -2.14772 | 33418 ft | 401 kts | 149° |
| 2026-05-07 17:21 | 52.85731 | -2.12322 | 33156 ft | 399 kts | 149° |
| 2026-05-07 17:21 | 52.83386 | -2.09885 | 32885 ft | 397 kts | 149° |
| 2026-05-07 17:21 | 52.81060 | -2.07465 | 32464 ft | 393 kts | 149° |
| 2026-05-07 17:21 | 52.78789 | -2.05103 | 31988 ft | 390 kts | 149° |
| 2026-05-07 17:22 | 52.76505 | -2.02729 | 31515 ft | 386 kts | 149° |
| 2026-05-07 17:22 | 52.74239 | -2.00376 | 31036 ft | 384 kts | 149° |
| 2026-05-07 17:22 | 52.71992 | -1.98041 | 30594 ft | 380 kts | 149° |
| 2026-05-07 17:22 | 52.69761 | -1.95727 | 30147 ft | 378 kts | 149° |
| 2026-05-07 17:23 | 52.67542 | -1.93430 | 29645 ft | 374 kts | 150° |
| 2026-05-07 17:23 | 52.65351 | -1.91167 | 29240 ft | 370 kts | 150° |
| 2026-05-07 17:23 | 52.63184 | -1.88931 | 28821 ft | 365 kts | 150° |
| 2026-05-07 17:23 | 52.61046 | -1.86729 | 28423 ft | 360 kts | 150° |
| 2026-05-07 17:24 | 52.58934 | -1.84557 | 28028 ft | 356 kts | 150° |
| 2026-05-07 17:24 | 52.56842 | -1.82413 | 27610 ft | 353 kts | 150° |
| 2026-05-07 17:24 | 52.54769 | -1.80290 | 27209 ft | 349 kts | 150° |
| 2026-05-07 17:24 | 52.52715 | -1.78188 | 26811 ft | 347 kts | 150° |
| 2026-05-07 17:25 | 52.50674 | -1.76099 | 26376 ft | 344 kts | 150° |
| 2026-05-07 17:25 | 52.48648 | -1.74030 | 25960 ft | 342 kts | 151° |
| 2026-05-07 17:25 | 52.46635 | -1.71971 | 25531 ft | 341 kts | 151° |
| 2026-05-07 17:25 | 52.44628 | -1.69920 | 25112 ft | 339 kts | 151° |
| 2026-05-07 17:26 | 52.42628 | -1.67878 | 24665 ft | 339 kts | 151° |
| 2026-05-07 17:26 | 52.40652 | -1.65864 | 24218 ft | 338 kts | 151° |
| 2026-05-07 17:26 | 52.38654 | -1.63829 | 23781 ft | 338 kts | 151° |
| 2026-05-07 17:26 | 52.36654 | -1.61798 | 23297 ft | 338 kts | 151° |
| 2026-05-07 17:27 | 52.34659 | -1.59777 | 22830 ft | 336 kts | 151° |
| 2026-05-07 17:27 | 52.32673 | -1.57766 | 22389 ft | 334 kts | 151° |
| 2026-05-07 17:27 | 52.30700 | -1.55768 | 21968 ft | 333 kts | 151° |
| 2026-05-07 17:27 | 52.28735 | -1.53781 | 21559 ft | 332 kts | 151° |
| 2026-05-07 17:28 | 52.26774 | -1.51804 | 21126 ft | 330 kts | 151° |
| 2026-05-07 17:28 | 52.24826 | -1.49840 | 20725 ft | 329 kts | 151° |
| 2026-05-07 17:28 | 52.22884 | -1.47881 | 20304 ft | 328 kts | 151° |
| 2026-05-07 17:28 | 52.21015 | -1.45752 | 19904 ft | 330 kts | 142° |
| 2026-05-07 17:29 | 52.19270 | -1.43297 | 19589 ft | 332 kts | 142° |
| 2026-05-07 17:29 | 52.17517 | -1.40842 | 19252 ft | 331 kts | 142° |
| 2026-05-07 17:29 | 52.15773 | -1.38408 | 18916 ft | 330 kts | 142° |
| 2026-05-07 17:29 | 52.14034 | -1.35979 | 18581 ft | 328 kts | 142° |
| 2026-05-07 17:30 | 52.12305 | -1.33567 | 18236 ft | 327 kts | 142° |
| 2026-05-07 17:30 | 52.10585 | -1.31173 | 17893 ft | 324 kts | 142° |
| 2026-05-07 17:30 | 52.08876 | -1.28798 | 17551 ft | 322 kts | 142° |
| 2026-05-07 17:30 | 52.07178 | -1.26438 | 17222 ft | 320 kts | 142° |
| 2026-05-07 17:31 | 52.05488 | -1.24092 | 16894 ft | 318 kts | 142° |
| 2026-05-07 17:31 | 52.03811 | -1.21767 | 16559 ft | 316 kts | 142° |
| 2026-05-07 17:31 | 52.02145 | -1.19460 | 16228 ft | 314 kts | 142° |
| 2026-05-07 17:31 | 52.00482 | -1.17163 | 15901 ft | 313 kts | 142° |
| 2026-05-07 17:32 | 51.98833 | -1.14887 | 15597 ft | 311 kts | 142° |
| 2026-05-07 17:32 | 51.97193 | -1.12622 | 15283 ft | 309 kts | 142° |
| 2026-05-07 17:32 | 51.95562 | -1.10372 | 15047 ft | 306 kts | 142° |
| 2026-05-07 17:32 | 51.94489 | -1.08893 | 15009 ft | 305 kts | 142° |
| 2026-05-07 17:33 | 51.92325 | -1.05908 | 15022 ft | 306 kts | 142° |
| 2026-05-07 17:33 | 51.90681 | -1.03652 | 14412 ft | 316 kts | 142° |
| 2026-05-07 17:33 | 51.88988 | -1.01330 | 13953 ft | 318 kts | 142° |
| 2026-05-07 17:33 | 51.87345 | -0.99068 | 13639 ft | 302 kts | 142° |
| 2026-05-07 17:34 | 51.85796 | -0.96840 | 13083 ft | 296 kts | 134° |
| 2026-05-07 17:34 | 51.84636 | -0.94116 | 12499 ft | 295 kts | 118° |
| 2026-05-07 17:34 | 51.83745 | -0.91192 | 11852 ft | 293 kts | 118° |
| 2026-05-07 17:34 | 51.82844 | -0.88237 | 11373 ft | 293 kts | 118° |
| 2026-05-07 17:35 | 51.81939 | -0.85274 | 10973 ft | 294 kts | 118° |
| 2026-05-07 17:35 | 51.81034 | -0.82310 | 10572 ft | 294 kts | 118° |
| 2026-05-07 17:35 | 51.80121 | -0.79357 | 10201 ft | 293 kts | 121° |
| 2026-05-07 17:35 | 51.78817 | -0.76884 | 9801 ft | 289 kts | 146° |
| 2026-05-07 17:36 | 51.77004 | -0.75628 | 9375 ft | 285 kts | 172° |
| 2026-05-07 17:36 | 51.75051 | -0.75782 | 8944 ft | 282 kts | 193° |
| 2026-05-07 17:36 | 51.73156 | -0.76563 | 8521 ft | 281 kts | 195° |
| 2026-05-07 17:36 | 51.71277 | -0.77408 | 8121 ft | 279 kts | 196° |
| 2026-05-07 17:37 | 51.69432 | -0.78249 | 8026 ft | 273 kts | 196° |
| 2026-05-07 17:37 | 51.67602 | -0.79086 | 8038 ft | 273 kts | 196° |
| 2026-05-07 17:37 | 51.65775 | -0.79922 | 8039 ft | 272 kts | 196° |
| 2026-05-07 17:37 | 51.64006 | -0.80730 | 8015 ft | 256 kts | 196° |
| 2026-05-07 17:38 | 51.62309 | -0.81505 | 7767 ft | 251 kts | 196° |
| 2026-05-07 17:38 | 51.60652 | -0.82266 | 7501 ft | 242 kts | 196° |
| 2026-05-07 17:38 | 51.59092 | -0.83053 | 7246 ft | 228 kts | 206° |
| 2026-05-07 17:38 | 51.57954 | -0.84665 | 6990 ft | 215 kts | 241° |
| 2026-05-07 17:39 | 51.57490 | -0.86891 | 6743 ft | 207 kts | 258° |
| 2026-05-07 17:39 | 51.57246 | -0.89143 | 6495 ft | 203 kts | 261° |
| 2026-05-07 17:39 | 51.56987 | -0.91360 | 6236 ft | 199 kts | 248° |
| 2026-05-07 17:39 | 51.56150 | -0.93052 | 5983 ft | 196 kts | 209° |
| 2026-05-07 17:40 | 51.54854 | -0.93663 | 5719 ft | 196 kts | 185° |
| 2026-05-07 17:40 | 51.53487 | -0.93810 | 5459 ft | 198 kts | 181° |
| 2026-05-07 17:40 | 51.52105 | -0.93882 | 5205 ft | 199 kts | 181° |
| 2026-05-07 17:40 | 51.50713 | -0.93917 | 4950 ft | 201 kts | 176° |
| 2026-05-07 17:41 | 51.49363 | -0.93400 | 4703 ft | 201 kts | 153° |
| 2026-05-07 17:41 | 51.48255 | -0.92065 | 4438 ft | 201 kts | 129° |
| 2026-05-07 17:41 | 51.47595 | -0.90106 | 4187 ft | 201 kts | 104° |
| 2026-05-07 17:41 | 51.47507 | -0.87893 | 4023 ft | 197 kts | 85° |
| 2026-05-07 17:42 | 51.47556 | -0.85742 | 3990 ft | 190 kts | 90° |
| 2026-05-07 17:42 | 51.47559 | -0.83631 | 3995 ft | 190 kts | 90° |
| 2026-05-07 17:42 | 51.47569 | -0.81515 | 3995 ft | 190 kts | 90° |
| 2026-05-07 17:42 | 51.47582 | -0.79406 | 3878 ft | 188 kts | 90° |
| 2026-05-07 17:43 | 51.47595 | -0.77308 | 3647 ft | 189 kts | 90° |
| 2026-05-07 17:43 | 51.47609 | -0.75229 | 3432 ft | 188 kts | 90° |
| 2026-05-07 17:43 | 51.47622 | -0.73158 | 3172 ft | 185 kts | 90° |
| 2026-05-07 17:43 | 51.47634 | -0.71110 | 2907 ft | 182 kts | 90° |
| 2026-05-07 17:44 | 51.47646 | -0.69118 | 2659 ft | 175 kts | 91° |
| 2026-05-07 17:44 | 51.47657 | -0.67205 | 2428 ft | 170 kts | 91° |
| 2026-05-07 17:44 | 51.47668 | -0.65321 | 2206 ft | 169 kts | 91° |
| 2026-05-07 17:44 | 51.47678 | -0.63441 | 1975 ft | 168 kts | 91° |
| 2026-05-07 17:45 | 51.47688 | -0.61580 | 1747 ft | 167 kts | 91° |
| 2026-05-07 17:45 | 51.47694 | -0.60321 | 1579 ft | 167 kts | 91° |
| 2026-05-07 17:45 | 51.47704 | -0.58453 | 1366 ft | 168 kts | 92° |
| 2026-05-07 17:45 | 51.47713 | -0.56616 | 1151 ft | 165 kts | 91° |
| 2026-05-07 17:46 | 51.47721 | -0.54784 | 897 ft | 161 kts | 92° |
| 2026-05-07 17:46 | 51.47735 | -0.53044 | 691 ft | 151 kts | 91° |
| 2026-05-07 17:46 | 51.47744 | -0.51394 | 530 ft | 146 kts | 91° |
| 2026-05-07 17:46 | 51.47748 | -0.49778 | 284 ft | 145 kts | 93° |
| 2026-05-07 17:47 | 51.47756 | -0.48185 | 95 ft | 142 kts | 93° |
| 2026-05-07 17:47 | 51.47757 | -0.46777 | 92 ft | 107 kts | 90° |
| 2026-05-07 17:47 | 51.47757 | -0.45861 | 88 ft | 60 kts | 91° |
| 2026-05-07 17:47 | 51.47726 | -0.45487 | 88 ft | 23 kts | 145° |
| 2026-05-07 17:48 | 51.47629 | -0.45466 | 86 ft | 8 kts | 179° |
| 2026-05-07 17:48 | 51.47610 | -0.45467 | 86 ft | 1 kts | 180° |
| 2026-05-07 17:48 | 51.47598 | -0.45467 | 86 ft | 4 kts | 180° |
| 2026-05-07 17:48 | 51.47553 | -0.45467 | 86 ft | 6 kts | 181° |
| 2026-05-07 17:49 | 51.47508 | -0.45520 | 88 ft | 12 kts | 252° |
| 2026-05-07 17:49 | 51.47508 | -0.45688 | 88 ft | 18 kts | 272° |
| 2026-05-07 17:49 | 51.47516 | -0.45881 | 86 ft | 16 kts | 269° |
| 2026-05-07 17:49 | 51.47512 | -0.46097 | 87 ft | 18 kts | 268° |
| 2026-05-07 17:50 | 51.47514 | -0.46264 | 86 ft | 13 kts | 271° |
| 2026-05-07 17:50 | 51.47505 | -0.46401 | 89 ft | 12 kts | 224° |
| 2026-05-07 17:50 | 51.47440 | -0.46411 | 87 ft | 5 kts | 179° |
| 2026-05-07 17:50 | 51.47427 | -0.46411 | 86 ft | 0 kts | 180° |